Terminal Aerodrome Forecast
Issued by NWS Lake Charles, LA

Home | Current Version | Previous Version | Text Only | Print | Product List | Glossary On
Versions: 1 2 3 4 5 6 7 8 9 10 11 12 13 14 15 16 17 18
000
FTUS44 KLCH 272007 AAA
TAFAEX
TAF AMD
KAEX 272007Z 2720/2818 08005KT 2SM TSRA SCT030CB BKN100
     FM272100 08005KT P6SM VCTS SCT040CB BKN100
     FM280300 VRB03KT P6SM BKN100=

USA.gov is the U.S. government's official web portal to all federal, state and local government web resources and services.